createdAt,value
2018-08-22T16:02:49.001Z,85.90
2018-08-22T16:05:17.230Z,86.10
2018-08-22T16:10:13.386Z,87.20
2018-08-22T16:12:41.585Z,87.70
2018-08-22T16:15:09.757Z,86.60
2018-08-22T16:17:37.987Z,86.60
2018-08-22T16:20:06.167Z,86.10
2018-08-22T16:22:34.802Z,85.10
2018-08-22T16:25:03.023Z,86.10
2018-08-22T16:27:31.195Z,86.20
2018-08-22T16:29:59.405Z,88.00
2018-08-22T16:32:27.605Z,89.60
2018-08-22T16:34:55.770Z,90.00
2018-08-22T16:39:51.859Z,90.70
2018-08-22T16:44:52.315Z,91.10
2018-08-22T16:49:52.754Z,92.20
2018-08-22T16:52:20.939Z,91.90
2018-08-22T16:54:54.374Z,92.50
2018-08-22T16:59:50.461Z,92.50
2018-08-22T17:02:18.653Z,93.20
2018-08-22T17:04:46.823Z,93.60
2018-08-22T17:09:48.043Z,94.20
2018-08-22T17:12:16.283Z,94.80
2018-08-22T17:14:44.458Z,95.40
2018-08-22T17:17:12.645Z,96.10
2018-08-22T17:22:08.736Z,96.40
2018-08-22T17:24:36.911Z,96.70
2018-08-22T17:27:05.172Z,96.60
2018-08-22T17:32:04.947Z,97.60
2018-08-22T17:34:33.446Z,98.50
2018-08-22T17:37:06.765Z,99.20
2018-08-22T17:42:02.892Z,99.90
2018-08-22T17:44:31.085Z,99.90
2018-08-22T17:46:59.406Z,99.90
2018-08-22T17:49:27.608Z,99.90
2018-08-22T17:51:59.626Z,99.90
2018-08-22T17:54:27.972Z,99.90
2018-08-22T18:01:58.609Z,99.90
2018-08-22T18:09:22.754Z,99.90
2018-08-22T18:11:50.932Z,99.90
2018-08-22T18:14:19.122Z,99.90
2018-08-22T18:16:50.339Z,99.90
2018-08-22T18:19:18.567Z,99.90
2018-08-22T18:21:46.980Z,99.90
2018-08-22T18:26:46.822Z,99.90
2018-08-22T18:31:42.901Z,99.90
2018-08-22T18:34:11.067Z,99.90
2018-08-22T18:36:39.261Z,99.90
2018-08-22T18:39:10.761Z,99.90
2018-08-22T18:41:38.943Z,99.90
2018-08-22T18:44:07.097Z,99.90
2018-08-22T18:51:32.069Z,99.90
2018-08-22T18:54:00.997Z,99.90
2018-08-22T18:56:29.124Z,99.90
2018-08-22T18:58:57.294Z,99.90
2018-08-22T19:03:55.329Z,99.90
2018-08-22T19:06:23.498Z,99.90
2018-08-22T19:08:51.678Z,99.90
2018-08-22T19:11:20.486Z,99.90
2018-08-22T19:13:48.653Z,99.90
2018-08-22T19:16:16.845Z,99.90
2018-08-22T19:18:45.018Z,99.90
2018-08-22T19:21:13.183Z,99.90
2018-08-22T19:28:55.734Z,99.90
2018-08-22T19:31:23.905Z,99.90
2018-08-22T19:33:52.094Z,99.90
2018-08-22T19:36:20.259Z,99.90
2018-08-22T19:38:48.521Z,99.90
2018-08-22T19:41:23.719Z,99.90
2018-08-22T19:43:52.007Z,99.90
2018-08-22T19:46:20.281Z,99.90
2018-08-22T19:48:48.644Z,99.90
2018-08-22T19:51:16.933Z,99.90
2018-08-22T19:53:57.240Z,99.90
2018-08-22T19:56:25.820Z,99.90
2018-08-22T19:58:53.897Z,99.90
2018-08-22T20:01:22.109Z,99.90
2018-08-22T20:06:20.148Z,99.90
2018-08-22T20:08:48.805Z,99.90
2018-08-22T20:14:11.461Z,99.90
2018-08-22T20:19:07.569Z,99.90
2018-08-22T20:21:36.671Z,99.90
2018-08-22T20:24:06.231Z,99.90
2018-08-22T20:26:34.871Z,99.90
2018-08-22T20:29:03.671Z,99.90
2018-08-22T20:31:32.408Z,99.90
2018-08-22T20:34:05.674Z,99.90
2018-08-22T20:36:33.847Z,99.90
2018-08-22T20:39:06.661Z,99.90
2018-08-22T20:44:04.943Z,99.90
2018-08-22T20:46:33.105Z,99.90
2018-08-22T20:49:01.277Z,99.90
2018-08-22T20:51:30.663Z,99.90
2018-08-22T20:54:04.193Z,99.90
2018-08-22T20:56:32.389Z,99.90
2018-08-22T20:59:00.541Z,99.90
2018-08-22T21:01:28.709Z,99.90
2018-08-22T21:03:56.910Z,99.90
2018-08-22T21:08:53.022Z,99.90
2018-08-22T21:13:49.211Z,99.90
2018-08-22T21:18:45.233Z,99.90
2018-08-22T21:21:21.506Z,99.90
2018-08-22T21:28:55.508Z,99.90
2018-08-22T21:31:24.493Z,99.90
2018-08-22T21:36:21.111Z,99.90
2018-08-22T21:38:49.286Z,99.90
2018-08-22T21:41:17.462Z,99.90
2018-08-22T21:43:45.665Z,99.90
2018-08-22T21:46:13.845Z,99.90
2018-08-22T21:48:42.038Z,99.90
2018-08-22T21:56:06.081Z,99.90
2018-08-22T21:58:34.269Z,99.90
